sensor_id;sensor_type;location;lat;lon;timestamp;pressure;altitude;pressure_sealevel;temperature;humidity
73516;BME280;61763;51.416;5.442;2023-02-28T00:00:23;102998.31;;;-1.44;98.23
73516;BME280;61763;51.416;5.442;2023-02-28T00:02:50;102995.66;;;-1.44;98.11
73516;BME280;61763;51.416;5.442;2023-02-28T00:05:18;103000.84;;;-1.47;98.65
73516;BME280;61763;51.416;5.442;2023-02-28T00:07:44;102998.34;;;-1.43;98.27
73516;BME280;61763;51.416;5.442;2023-02-28T00:10:13;102989.00;;;-1.31;98.28
73516;BME280;61763;51.416;5.442;2023-02-28T00:12:40;102995.16;;;-1.32;97.27
73516;BME280;61763;51.416;5.442;2023-02-28T00:15:08;103000.03;;;-1.19;96.21
73516;BME280;61763;51.416;5.442;2023-02-28T00:17:34;103003.56;;;-1.18;96.60
73516;BME280;61763;51.416;5.442;2023-02-28T00:20:00;102999.25;;;-1.42;96.95
73516;BME280;61763;51.416;5.442;2023-02-28T00:22:30;103004.66;;;-1.65;98.31
73516;BME280;61763;51.416;5.442;2023-02-28T00:24:55;103005.13;;;-1.77;99.71
73516;BME280;61763;51.416;5.442;2023-02-28T00:27:20;103001.31;;;-1.85;100.00
73516;BME280;61763;51.416;5.442;2023-02-28T00:29:46;103001.88;;;-1.94;100.00
73516;BME280;61763;51.416;5.442;2023-02-28T00:32:12;103004.25;;;-2.01;100.00
73516;BME280;61763;51.416;5.442;2023-02-28T00:34:37;103010.06;;;-2.12;100.00
73516;BME280;61763;51.416;5.442;2023-02-28T00:37:07;103003.50;;;-2.21;100.00
73516;BME280;61763;51.416;5.442;2023-02-28T00:39:35;103013.59;;;-2.35;100.00
73516;BME280;61763;51.416;5.442;2023-02-28T00:42:01;103011.16;;;-2.29;100.00
73516;BME280;61763;51.416;5.442;2023-02-28T00:44:28;103010.13;;;-2.33;100.00
73516;BME280;61763;51.416;5.442;2023-02-28T00:46:53;103014.13;;;-2.44;100.00
73516;BME280;61763;51.416;5.442;2023-02-28T00:49:19;103009.22;;;-2.57;100.00
73516;BME280;61763;51.416;5.442;2023-02-28T00:51:45;103009.44;;;-2.51;100.00
73516;BME280;61763;51.416;5.442;2023-02-28T00:54:11;103004.09;;;-2.53;100.00
73516;BME280;61763;51.416;5.442;2023-02-28T00:56:36;103013.03;;;-2.26;100.00
73516;BME280;61763;51.416;5.442;2023-02-28T00:59:02;103012.50;;;-1.92;100.00
73516;BME280;61763;51.416;5.442;2023-02-28T01:01:27;103007.47;;;-1.60;100.00
73516;BME280;61763;51.416;5.442;2023-02-28T01:03:53;103005.44;;;-1.42;100.00
73516;BME280;61763;51.416;5.442;2023-02-28T01:06:18;103010.72;;;-1.42;99.71
73516;BME280;61763;51.416;5.442;2023-02-28T01:08:43;103012.47;;;-1.42;99.52
73516;BME280;61763;51.416;5.442;2023-02-28T01:11:14;103017.69;;;-1.45;99.21
73516;BME280;61763;51.416;5.442;2023-02-28T01:13:42;103019.53;;;-1.43;99.84
73516;BME280;61763;51.416;5.442;2023-02-28T01:16:08;103017.88;;;-1.39;98.89
73516;BME280;61763;51.416;5.442;2023-02-28T01:18:34;103017.38;;;-1.54;100.00
73516;BME280;61763;51.416;5.442;2023-02-28T01:21:08;103013.06;;;-1.51;99.94
73516;BME280;61763;51.416;5.442;2023-02-28T01:23:34;103013.75;;;-1.56;98.99
73516;BME280;61763;51.416;5.442;2023-02-28T01:26:17;103013.00;;;-1.52;99.52
73516;BME280;61763;51.416;5.442;2023-02-28T01:28:44;103015.31;;;-1.63;100.00
73516;BME280;61763;51.416;5.442;2023-02-28T01:31:10;103011.25;;;-1.52;100.00
73516;BME280;61763;51.416;5.442;2023-02-28T01:33:37;103021.75;;;-1.55;99.95
73516;BME280;61763;51.416;5.442;2023-02-28T01:36:09;103024.94;;;-1.39;99.54
73516;BME280;61763;51.416;5.442;2023-02-28T01:38:35;103024.03;;;-1.40;98.95
73516;BME280;61763;51.416;5.442;2023-02-28T01:41:01;103024.19;;;-1.61;99.64
73516;BME280;61763;51.416;5.442;2023-02-28T01:43:29;103008.78;;;-1.47;99.42
73516;BME280;61763;51.416;5.442;2023-02-28T01:45:56;103012.47;;;-1.42;99.77
73516;BME280;61763;51.416;5.442;2023-02-28T01:48:26;103007.72;;;-1.52;99.38
73516;BME280;61763;51.416;5.442;2023-02-28T01:50:52;103008.72;;;-1.49;99.43
73516;BME280;61763;51.416;5.442;2023-02-28T01:53:23;103009.31;;;-1.57;99.81
73516;BME280;61763;51.416;5.442;2023-02-28T01:55:53;102999.47;;;-1.62;99.96
73516;BME280;61763;51.416;5.442;2023-02-28T01:58:19;103007.88;;;-1.48;99.15
73516;BME280;61763;51.416;5.442;2023-02-28T02:00:44;102996.59;;;-1.42;98.55
73516;BME280;61763;51.416;5.442;2023-02-28T02:03:13;102998.09;;;-1.23;97.97
73516;BME280;61763;51.416;5.442;2023-02-28T02:05:40;102992.22;;;-1.40;98.36
73516;BME280;61763;51.416;5.442;2023-02-28T02:08:15;102987.28;;;-1.56;98.78
73516;BME280;61763;51.416;5.442;2023-02-28T02:10:45;102978.97;;;-1.67;99.97
73516;BME280;61763;51.416;5.442;2023-02-28T02:33:45;102967.72;;;-2.12;100.00
73516;BME280;61763;51.416;5.442;2023-02-28T02:41:39;102970.47;;;-2.33;100.00
73516;BME280;61763;51.416;5.442;2023-02-28T02:44:14;102975.34;;;-2.43;100.00
73516;BME280;61763;51.416;5.442;2023-02-28T02:46:43;102972.22;;;-2.33;100.00
73516;BME280;61763;51.416;5.442;2023-02-28T02:49:20;102971.88;;;-2.18;100.00
73516;BME280;61763;51.416;5.442;2023-02-28T02:51:48;102972.84;;;-2.16;100.00
73516;BME280;61763;51.416;5.442;2023-02-28T02:54:17;102972.78;;;-2.18;100.00
73516;BME280;61763;51.416;5.442;2023-02-28T02:56:47;102972.38;;;-2.04;100.00
73516;BME280;61763;51.416;5.442;2023-02-28T02:59:17;102983.44;;;-2.16;100.00
73516;BME280;61763;51.416;5.442;2023-02-28T03:01:49;102980.97;;;-2.34;100.00
73516;BME280;61763;51.416;5.442;2023-02-28T03:04:20;102982.56;;;-2.39;100.00
73516;BME280;61763;51.416;5.442;2023-02-28T03:06:46;102975.06;;;-2.27;100.00
73516;BME280;61763;51.416;5.442;2023-02-28T03:09:12;102987.91;;;-2.14;100.00
73516;BME280;61763;51.416;5.442;2023-02-28T03:11:38;102983.91;;;-2.02;100.00
73516;BME280;61763;51.416;5.442;2023-02-28T03:25:07;102975.81;;;-1.81;100.00
73516;BME280;61763;51.416;5.442;2023-02-28T03:27:41;102971.53;;;-1.52;99.23
73516;BME280;61763;51.416;5.442;2023-02-28T03:30:14;102969.66;;;-1.29;97.34
73516;BME280;61763;51.416;5.442;2023-02-28T03:35:31;102970.59;;;-1.27;96.60
73516;BME280;61763;51.416;5.442;2023-02-28T03:38:26;102977.38;;;-1.36;96.83
73516;BME280;61763;51.416;5.442;2023-02-28T03:41:05;102967.00;;;-1.29;96.00
73516;BME280;61763;51.416;5.442;2023-02-28T03:43:35;102970.53;;;-1.28;95.75
73516;BME280;61763;51.416;5.442;2023-02-28T03:46:03;102973.72;;;-1.13;95.92
73516;BME280;61763;51.416;5.442;2023-02-28T03:48:38;102974.22;;;-1.25;95.55
73516;BME280;61763;51.416;5.442;2023-02-28T03:51:08;102976.25;;;-1.16;95.48
73516;BME280;61763;51.416;5.442;2023-02-28T03:53:37;102974.97;;;-1.29;96.11
73516;BME280;61763;51.416;5.442;2023-02-28T03:56:12;102967.25;;;-1.21;95.30
73516;BME280;61763;51.416;5.442;2023-02-28T03:58:47;102964.59;;;-1.21;95.15
73516;BME280;61763;51.416;5.442;2023-02-28T04:01:18;102982.25;;;-1.21;95.32
73516;BME280;61763;51.416;5.442;2023-02-28T04:03:46;102970.03;;;-1.16;95.25
73516;BME280;61763;51.416;5.442;2023-02-28T04:06:19;102981.84;;;-1.07;94.56
73516;BME280;61763;51.416;5.442;2023-02-28T04:08:46;102974.69;;;-1.09;94.62
73516;BME280;61763;51.416;5.442;2023-02-28T04:11:32;102974.59;;;-1.12;94.77
73516;BME280;61763;51.416;5.442;2023-02-28T04:13:58;102975.06;;;-0.98;94.36
73516;BME280;61763;51.416;5.442;2023-02-28T04:16:23;102977.81;;;-0.95;93.74
73516;BME280;61763;51.416;5.442;2023-02-28T04:18:49;102982.09;;;-0.99;94.43
73516;BME280;61763;51.416;5.442;2023-02-28T04:21:14;102975.00;;;-1.00;94.25
73516;BME280;61763;51.416;5.442;2023-02-28T04:23:39;102978.56;;;-0.99;94.18
73516;BME280;61763;51.416;5.442;2023-02-28T04:26:05;102979.28;;;-1.03;94.71
73516;BME280;61763;51.416;5.442;2023-02-28T04:28:32;102982.75;;;-1.06;94.73
73516;BME280;61763;51.416;5.442;2023-02-28T04:31:00;102982.34;;;-0.91;94.06
73516;BME280;61763;51.416;5.442;2023-02-28T04:33:28;102986.66;;;-0.95;94.08
73516;BME280;61763;51.416;5.442;2023-02-28T04:36:06;102984.03;;;-0.93;93.72
73516;BME280;61763;51.416;5.442;2023-02-28T04:38:34;102960.09;;;-0.96;93.80
73516;BME280;61763;51.416;5.442;2023-02-28T04:41:00;102981.53;;;-0.89;93.66
73516;BME280;61763;51.416;5.442;2023-02-28T04:43:27;102987.66;;;-0.91;94.04
73516;BME280;61763;51.416;5.442;2023-02-28T04:45:53;102989.34;;;-0.93;94.02
73516;BME280;61763;51.416;5.442;2023-02-28T04:48:25;102986.00;;;-0.88;94.27
73516;BME280;61763;51.416;5.442;2023-02-28T04:50:51;102988.59;;;-0.89;93.70
73516;BME280;61763;51.416;5.442;2023-02-28T04:53:18;102991.19;;;-0.91;93.95
73516;BME280;61763;51.416;5.442;2023-02-28T04:55:44;102986.88;;;-0.87;93.75
73516;BME280;61763;51.416;5.442;2023-02-28T04:58:11;102985.91;;;-0.91;93.96
73516;BME280;61763;51.416;5.442;2023-02-28T05:00:37;102987.56;;;-0.94;93.94
73516;BME280;61763;51.416;5.442;2023-02-28T05:03:02;102986.69;;;-0.93;93.77
73516;BME280;61763;51.416;5.442;2023-02-28T05:05:27;102978.75;;;-0.93;93.96
73516;BME280;61763;51.416;5.442;2023-02-28T05:07:54;102989.38;;;-0.92;93.42
73516;BME280;61763;51.416;5.442;2023-02-28T05:10:22;102990.31;;;-0.91;93.83
73516;BME280;61763;51.416;5.442;2023-02-28T05:12:47;102988.44;;;-0.94;93.87
73516;BME280;61763;51.416;5.442;2023-02-28T05:15:14;102991.94;;;-0.95;94.27
73516;BME280;61763;51.416;5.442;2023-02-28T05:17:40;102998.31;;;-0.90;93.99
73516;BME280;61763;51.416;5.442;2023-02-28T05:20:08;103001.75;;;-0.92;94.42
73516;BME280;61763;51.416;5.442;2023-02-28T05:22:36;102993.81;;;-0.92;94.04
73516;BME280;61763;51.416;5.442;2023-02-28T05:25:03;103000.00;;;-0.92;94.41
73516;BME280;61763;51.416;5.442;2023-02-28T05:27:30;103002.59;;;-0.93;94.24
73516;BME280;61763;51.416;5.442;2023-02-28T05:29:55;103008.00;;;-0.90;93.72
73516;BME280;61763;51.416;5.442;2023-02-28T05:32:21;102998.31;;;-0.90;93.70
73516;BME280;61763;51.416;5.442;2023-02-28T05:34:46;103004.41;;;-0.92;93.96
73516;BME280;61763;51.416;5.442;2023-02-28T05:37:12;103004.34;;;-0.94;94.33
73516;BME280;61763;51.416;5.442;2023-02-28T05:39:38;103009.66;;;-0.94;93.99
73516;BME280;61763;51.416;5.442;2023-02-28T05:42:04;103007.81;;;-0.96;94.25
73516;BME280;61763;51.416;5.442;2023-02-28T05:44:29;103007.81;;;-0.96;94.23
73516;BME280;61763;51.416;5.442;2023-02-28T05:46:55;103008.69;;;-0.96;94.37
73516;BME280;61763;51.416;5.442;2023-02-28T05:49:20;103000.97;;;-0.90;93.47
73516;BME280;61763;51.416;5.442;2023-02-28T05:51:46;103005.19;;;-0.95;93.49
73516;BME280;61763;51.416;5.442;2023-02-28T05:54:11;103004.25;;;-0.97;93.47
73516;BME280;61763;51.416;5.442;2023-02-28T05:56:37;103005.06;;;-0.99;94.01
73516;BME280;61763;51.416;5.442;2023-02-28T05:59:06;103009.41;;;-1.01;94.25
73516;BME280;61763;51.416;5.442;2023-02-28T06:01:49;103001.41;;;-1.03;94.20
73516;BME280;61763;51.416;5.442;2023-02-28T06:04:17;103007.66;;;-1.01;93.97
73516;BME280;61763;51.416;5.442;2023-02-28T06:06:48;103009.41;;;-1.01;93.85
73516;BME280;61763;51.416;5.442;2023-02-28T06:09:14;103009.59;;;-0.95;93.21
73516;BME280;61763;51.416;5.442;2023-02-28T06:11:40;103004.31;;;-0.95;93.08
73516;BME280;61763;51.416;5.442;2023-02-28T06:14:05;103020.25;;;-0.94;92.88
73516;BME280;61763;51.416;5.442;2023-02-28T06:16:35;103008.81;;;-0.93;92.67
73516;BME280;61763;51.416;5.442;2023-02-28T06:19:03;103001.94;;;-0.86;91.71
73516;BME280;61763;51.416;5.442;2023-02-28T06:21:29;103018.63;;;-0.89;92.46
73516;BME280;61763;51.416;5.442;2023-02-28T06:23:55;103017.75;;;-0.89;92.42
73516;BME280;61763;51.416;5.442;2023-02-28T06:26:21;103010.69;;;-0.89;91.84
73516;BME280;61763;51.416;5.442;2023-02-28T06:28:46;103012.69;;;-0.81;90.55
73516;BME280;61763;51.416;5.442;2023-02-28T06:31:16;103022.41;;;-0.82;90.08
73516;BME280;61763;51.416;5.442;2023-02-28T06:33:43;103025.09;;;-0.80;89.73
73516;BME280;61763;51.416;5.442;2023-02-28T06:36:11;103026.00;;;-0.80;90.65
73516;BME280;61763;51.416;5.442;2023-02-28T06:38:37;103027.00;;;-0.76;91.08
73516;BME280;61763;51.416;5.442;2023-02-28T06:41:03;103026.13;;;-0.75;90.95
73516;BME280;61763;51.416;5.442;2023-02-28T06:43:31;103026.81;;;-0.54;88.63
73516;BME280;61763;51.416;5.442;2023-02-28T06:45:58;103017.97;;;-0.54;87.80
73516;BME280;61763;51.416;5.442;2023-02-28T06:48:24;103031.44;;;-0.46;87.26
73516;BME280;61763;51.416;5.442;2023-02-28T06:50:50;103029.06;;;-0.37;86.33
73516;BME280;61763;51.416;5.442;2023-02-28T06:53:15;103027.69;;;-0.24;84.98
73516;BME280;61763;51.416;5.442;2023-02-28T06:55:41;103029.75;;;-0.14;82.95
73516;BME280;61763;51.416;5.442;2023-02-28T06:58:07;103025.38;;;-0.12;83.03
73516;BME280;61763;51.416;5.442;2023-02-28T07:00:44;103029.09;;;-0.07;81.63
73516;BME280;61763;51.416;5.442;2023-02-28T07:03:11;103034.47;;;-0.04;80.83
73516;BME280;61763;51.416;5.442;2023-02-28T07:05:37;103032.75;;;-0.02;79.07
73516;BME280;61763;51.416;5.442;2023-02-28T07:08:05;103037.59;;;0.12;78.31
73516;BME280;61763;51.416;5.442;2023-02-28T07:10:34;103045.47;;;0.10;77.58
73516;BME280;61763;51.416;5.442;2023-02-28T07:13:03;103045.44;;;0.09;77.82
73516;BME280;61763;51.416;5.442;2023-02-28T07:15:29;103044.63;;;0.11;78.02
73516;BME280;61763;51.416;5.442;2023-02-28T07:17:56;103053.09;;;0.28;76.40
73516;BME280;61763;51.416;5.442;2023-02-28T07:20:22;103055.81;;;0.31;75.36
73516;BME280;61763;51.416;5.442;2023-02-28T07:22:48;103050.66;;;0.38;75.58
73516;BME280;61763;51.416;5.442;2023-02-28T07:25:21;103052.94;;;0.57;74.53
73516;BME280;61763;51.416;5.442;2023-02-28T07:27:46;103057.50;;;0.61;74.01
73516;BME280;61763;51.416;5.442;2023-02-28T07:30:12;103062.16;;;0.70;73.04
73516;BME280;61763;51.416;5.442;2023-02-28T07:32:37;103064.13;;;0.77;72.70
73516;BME280;61763;51.416;5.442;2023-02-28T07:35:03;103055.34;;;0.80;72.24
73516;BME280;61763;51.416;5.442;2023-02-28T07:37:29;103052.75;;;0.83;71.57
73516;BME280;61763;51.416;5.442;2023-02-28T07:39:56;103056.50;;;0.93;70.91
73516;BME280;61763;51.416;5.442;2023-02-28T07:42:23;103049.34;;;0.89;71.21
73516;BME280;61763;51.416;5.442;2023-02-28T07:44:48;103055.56;;;0.89;69.90
73516;BME280;61763;51.416;5.442;2023-02-28T07:47:13;103056.50;;;0.93;69.31
73516;BME280;61763;51.416;5.442;2023-02-28T07:49:39;103058.50;;;1.01;67.76
73516;BME280;61763;51.416;5.442;2023-02-28T07:52:06;103053.75;;;0.88;68.31
73516;BME280;61763;51.416;5.442;2023-02-28T07:54:33;103052.34;;;1.02;67.55
73516;BME280;61763;51.416;5.442;2023-02-28T07:56:58;103064.69;;;0.99;67.89
73516;BME280;61763;51.416;5.442;2023-02-28T07:59:24;103068.50;;;1.12;66.56
73516;BME280;61763;51.416;5.442;2023-02-28T08:01:49;103065.28;;;1.25;66.24
73516;BME280;61763;51.416;5.442;2023-02-28T08:04:16;103066.41;;;1.35;64.84
73516;BME280;61763;51.416;5.442;2023-02-28T08:06:42;103065.13;;;1.55;64.01
73516;BME280;61763;51.416;5.442;2023-02-28T08:09:07;103067.75;;;1.54;62.83
73516;BME280;61763;51.416;5.442;2023-02-28T08:11:33;103067.19;;;1.69;62.21
73516;BME280;61763;51.416;5.442;2023-02-28T08:13:58;103062.59;;;1.62;61.69
73516;BME280;61763;51.416;5.442;2023-02-28T08:16:23;103071.31;;;1.56;61.47
73516;BME280;61763;51.416;5.442;2023-02-28T08:18:51;103068.84;;;1.64;61.25
73516;BME280;61763;51.416;5.442;2023-02-28T08:21:17;103067.09;;;1.64;60.39
73516;BME280;61763;51.416;5.442;2023-02-28T08:23:42;103066.19;;;1.64;60.25
73516;BME280;61763;51.416;5.442;2023-02-28T08:26:08;103067.91;;;1.62;59.19
73516;BME280;61763;51.416;5.442;2023-02-28T08:28:34;103067.94;;;1.63;59.18
73516;BME280;61763;51.416;5.442;2023-02-28T08:30:59;103059.16;;;1.67;58.40
73516;BME280;61763;51.416;5.442;2023-02-28T08:33:27;103057.34;;;1.66;57.80
73516;BME280;61763;51.416;5.442;2023-02-28T08:35:54;103057.53;;;1.72;57.26
73516;BME280;61763;51.416;5.442;2023-02-28T08:38:20;103056.78;;;1.80;57.47
73516;BME280;61763;51.416;5.442;2023-02-28T08:40:45;103058.78;;;1.90;58.00
73516;BME280;61763;51.416;5.442;2023-02-28T08:43:10;103059.94;;;2.04;55.41
73516;BME280;61763;51.416;5.442;2023-02-28T08:45:36;103053.84;;;2.10;54.89
73516;BME280;61763;51.416;5.442;2023-02-28T08:48:01;103048.44;;;2.05;52.72
73516;BME280;61763;51.416;5.442;2023-02-28T08:50:27;103053.72;;;2.04;53.02
73516;BME280;61763;51.416;5.442;2023-02-28T08:52:52;103056.31;;;1.99;52.63
73516;BME280;61763;51.416;5.442;2023-02-28T08:55:17;103058.03;;;1.97;51.69
73516;BME280;61763;51.416;5.442;2023-02-28T08:57:43;103050.22;;;2.05;52.02
73516;BME280;61763;51.416;5.442;2023-02-28T09:00:09;103049.53;;;2.15;52.39
73516;BME280;61763;51.416;5.442;2023-02-28T09:02:35;103054.25;;;2.30;52.37
73516;BME280;61763;51.416;5.442;2023-02-28T09:05:02;103057.91;;;2.35;51.32
73516;BME280;61763;51.416;5.442;2023-02-28T09:07:28;103054.78;;;2.58;51.59
73516;BME280;61763;51.416;5.442;2023-02-28T09:09:53;103060.59;;;2.37;49.83
73516;BME280;61763;51.416;5.442;2023-02-28T09:12:22;103050.19;;;2.49;50.33
73516;BME280;61763;51.416;5.442;2023-02-28T09:14:48;103060.09;;;2.56;48.51
73516;BME280;61763;51.416;5.442;2023-02-28T09:17:13;103058.47;;;2.66;48.25
73516;BME280;61763;51.416;5.442;2023-02-28T09:19:39;103050.25;;;2.54;46.64
73516;BME280;61763;51.416;5.442;2023-02-28T09:22:04;103046.78;;;2.58;45.80
73516;BME280;61763;51.416;5.442;2023-02-28T09:24:29;103046.63;;;2.50;45.79
73516;BME280;61763;51.416;5.442;2023-02-28T09:26:57;103051.25;;;2.60;46.22
73516;BME280;61763;51.416;5.442;2023-02-28T09:29:22;103054.09;;;2.68;48.22
73516;BME280;61763;51.416;5.442;2023-02-28T09:31:47;103049.84;;;2.81;45.80
73516;BME280;61763;51.416;5.442;2023-02-28T09:34:13;103057.16;;;2.93;45.58
73516;BME280;61763;51.416;5.442;2023-02-28T09:36:38;103049.59;;;2.67;44.14
73516;BME280;61763;51.416;5.442;2023-02-28T09:39:04;103047.13;;;2.78;44.49
73516;BME280;61763;51.416;5.442;2023-02-28T09:41:36;103052.44;;;2.78;44.21
73516;BME280;61763;51.416;5.442;2023-02-28T09:44:05;103057.94;;;2.86;44.61
73516;BME280;61763;51.416;5.442;2023-02-28T09:46:40;103050.75;;;2.82;43.84
73516;BME280;61763;51.416;5.442;2023-02-28T09:49:12;103049.84;;;2.83;43.88
73516;BME280;61763;51.416;5.442;2023-02-28T09:54:15;103050.13;;;2.96;43.31
73516;BME280;61763;51.416;5.442;2023-02-28T09:56:45;103043.03;;;3.00;43.40
73516;BME280;61763;51.416;5.442;2023-02-28T10:02:24;103051.72;;;2.87;42.07
73516;BME280;61763;51.416;5.442;2023-02-28T10:05:12;103047.53;;;3.03;42.56
73516;BME280;61763;51.416;5.442;2023-02-28T10:10:43;103034.88;;;3.47;41.39
73516;BME280;61763;51.416;5.442;2023-02-28T10:15:55;103031.31;;;3.47;40.11
73516;BME280;61763;51.416;5.442;2023-02-28T10:18:37;103029.78;;;3.66;40.26
73516;BME280;61763;51.416;5.442;2023-02-28T10:21:05;103033.81;;;3.35;40.34
73516;BME280;61763;51.416;5.442;2023-02-28T10:23:35;103026.72;;;3.38;39.68
73516;BME280;61763;51.416;5.442;2023-02-28T10:26:12;103022.41;;;3.46;39.93
73516;BME280;61763;51.416;5.442;2023-02-28T10:28:39;103021.38;;;3.37;39.92
73516;BME280;61763;51.416;5.442;2023-02-28T10:31:10;103033.66;;;3.25;40.81
73516;BME280;61763;51.416;5.442;2023-02-28T10:33:37;103021.34;;;3.33;41.30
73516;BME280;61763;51.416;5.442;2023-02-28T10:36:03;103015.28;;;3.47;41.47
73516;BME280;61763;51.416;5.442;2023-02-28T10:38:35;103016.38;;;3.60;41.22
73516;BME280;61763;51.416;5.442;2023-02-28T10:41:11;103011.09;;;3.66;41.67
73516;BME280;61763;51.416;5.442;2023-02-28T10:43:39;103017.97;;;3.48;41.41
73516;BME280;61763;51.416;5.442;2023-02-28T10:48:39;103010.31;;;3.75;41.70
73516;BME280;61763;51.416;5.442;2023-02-28T10:51:10;103015.97;;;3.99;40.39
73516;BME280;61763;51.416;5.442;2023-02-28T10:59:01;103014.81;;;3.77;39.74
73516;BME280;61763;51.416;5.442;2023-02-28T11:01:44;103001.56;;;3.86;40.04
73516;BME280;61763;51.416;5.442;2023-02-28T11:06:56;102997.06;;;3.82;39.74
73516;BME280;61763;51.416;5.442;2023-02-28T11:09:31;102989.09;;;3.87;39.99
73516;BME280;61763;51.416;5.442;2023-02-28T11:11:58;102992.00;;;4.06;39.58
73516;BME280;61763;51.416;5.442;2023-02-28T11:14:39;102989.06;;;3.84;39.74
73516;BME280;61763;51.416;5.442;2023-02-28T11:17:15;102988.28;;;3.93;39.79
73516;BME280;61763;51.416;5.442;2023-02-28T11:19:47;102995.31;;;3.84;39.99
73516;BME280;61763;51.416;5.442;2023-02-28T11:22:25;102995.16;;;3.74;40.20
73516;BME280;61763;51.416;5.442;2023-02-28T11:24:55;103000.72;;;3.89;40.37
73516;BME280;61763;51.416;5.442;2023-02-28T11:27:45;102981.28;;;4.02;40.57
73516;BME280;61763;51.416;5.442;2023-02-28T11:30:28;102992.47;;;3.72;40.33
73516;BME280;61763;51.416;5.442;2023-02-28T11:32:53;102982.06;;;3.94;40.03
73516;BME280;61763;51.416;5.442;2023-02-28T11:35:26;102977.75;;;4.05;40.63
73516;BME280;61763;51.416;5.442;2023-02-28T11:37:52;102974.22;;;4.11;41.69
73516;BME280;61763;51.416;5.442;2023-02-28T11:43:28;102969.91;;;4.24;40.91
73516;BME280;61763;51.416;5.442;2023-02-28T11:46:06;102976.81;;;4.01;40.56
73516;BME280;61763;51.416;5.442;2023-02-28T11:48:58;102965.34;;;4.12;40.45
73516;BME280;61763;51.416;5.442;2023-02-28T11:51:33;102963.53;;;4.11;40.90
73516;BME280;61763;51.416;5.442;2023-02-28T11:57:00;102967.28;;;4.28;40.86
73516;BME280;61763;51.416;5.442;2023-02-28T12:05:24;102960.31;;;4.44;40.85
73516;BME280;61763;51.416;5.442;2023-02-28T12:11:09;102954.13;;;4.51;39.99
73516;BME280;61763;51.416;5.442;2023-02-28T12:14:02;102947.56;;;4.15;40.40
73516;BME280;61763;51.416;5.442;2023-02-28T12:22:30;102951.44;;;4.48;40.39
73516;BME280;61763;51.416;5.442;2023-02-28T12:28:02;102943.22;;;4.28;41.58
73516;BME280;61763;51.416;5.442;2023-02-28T12:30:33;102945.03;;;4.29;41.76
73516;BME280;61763;51.416;5.442;2023-02-28T12:35:37;102947.88;;;4.49;40.41
73516;BME280;61763;51.416;5.442;2023-02-28T12:38:13;102937.09;;;4.40;40.53
73516;BME280;61763;51.416;5.442;2023-02-28T12:40:58;102936.19;;;4.39;40.68
73516;BME280;61763;51.416;5.442;2023-02-28T12:43:30;102935.31;;;4.39;41.17
73516;BME280;61763;51.416;5.442;2023-02-28T12:46:25;102921.91;;;4.33;40.15
73516;BME280;61763;51.416;5.442;2023-02-28T12:48:53;102928.16;;;4.38;40.01
73516;BME280;61763;51.416;5.442;2023-02-28T12:51:22;102923.78;;;4.45;41.06
73516;BME280;61763;51.416;5.442;2023-02-28T12:56:23;102921.75;;;4.19;40.90
73516;BME280;61763;51.416;5.442;2023-02-28T12:59:00;102918.34;;;4.35;41.16
73516;BME280;61763;51.416;5.442;2023-02-28T13:09:17;102913.25;;;4.69;41.13
73516;BME280;61763;51.416;5.442;2023-02-28T13:11:49;102898.09;;;4.67;41.36
73516;BME280;61763;51.416;5.442;2023-02-28T13:14:28;102896.25;;;4.58;40.42
73516;BME280;61763;51.416;5.442;2023-02-28T13:17:02;102894.47;;;4.59;40.80
73516;BME280;61763;51.416;5.442;2023-02-28T13:19:39;102902.31;;;4.40;41.01
73516;BME280;61763;51.416;5.442;2023-02-28T13:22:16;102899.59;;;4.32;41.33
73516;BME280;61763;51.416;5.442;2023-02-28T13:24:49;102886.31;;;4.42;40.49
73516;BME280;61763;51.416;5.442;2023-02-28T13:29:51;102895.31;;;4.54;40.50
73516;BME280;61763;51.416;5.442;2023-02-28T13:32:30;102890.91;;;4.58;40.23
73516;BME280;61763;51.416;5.442;2023-02-28T13:40:22;102875.81;;;4.71;40.90
73516;BME280;61763;51.416;5.442;2023-02-28T13:42:51;102871.47;;;4.85;40.67
73516;BME280;61763;51.416;5.442;2023-02-28T13:45:29;102874.13;;;4.85;40.26
73516;BME280;61763;51.416;5.442;2023-02-28T13:48:05;102875.06;;;4.87;40.29
73516;BME280;61763;51.416;5.442;2023-02-28T13:50:40;102870.47;;;4.69;40.46
73516;BME280;61763;51.416;5.442;2023-02-28T14:01:49;102871.38;;;4.68;40.97
73516;BME280;61763;51.416;5.442;2023-02-28T14:04:40;102860.56;;;4.56;40.17
73516;BME280;61763;51.416;5.442;2023-02-28T14:07:07;102858.00;;;4.67;40.47
73516;BME280;61763;51.416;5.442;2023-02-28T14:09:38;102870.47;;;4.71;40.73
73516;BME280;61763;51.416;5.442;2023-02-28T14:15:45;102874.84;;;4.53;41.79
73516;BME280;61763;51.416;5.442;2023-02-28T14:31:58;102856.97;;;4.48;41.54
73516;BME280;61763;51.416;5.442;2023-02-28T14:37:13;102860.56;;;4.56;42.21
73516;BME280;61763;51.416;5.442;2023-02-28T14:39:43;102861.50;;;4.60;42.26
73516;BME280;61763;51.416;5.442;2023-02-28T14:44:56;102845.44;;;4.55;41.92
73516;BME280;61763;51.416;5.442;2023-02-28T14:47:24;102851.69;;;4.62;41.64
73516;BME280;61763;51.416;5.442;2023-02-28T14:49:53;102843.63;;;4.55;41.79
73516;BME280;61763;51.416;5.442;2023-02-28T14:52:22;102857.97;;;4.65;42.61
73516;BME280;61763;51.416;5.442;2023-02-28T14:54:53;102840.97;;;4.54;42.37
73516;BME280;61763;51.416;5.442;2023-02-28T14:57:28;102849.91;;;4.61;42.37
73516;BME280;61763;51.416;5.442;2023-02-28T15:00:16;102842.81;;;4.67;42.67
73516;BME280;61763;51.416;5.442;2023-02-28T15:02:46;102846.31;;;4.57;42.30
73516;BME280;61763;51.416;5.442;2023-02-28T15:07:47;102837.31;;;4.46;42.12
73516;BME280;61763;51.416;5.442;2023-02-28T15:10:23;102837.28;;;4.39;42.02
73516;BME280;61763;51.416;5.442;2023-02-28T15:13:05;102842.63;;;4.38;41.73
73516;BME280;61763;51.416;5.442;2023-02-28T15:18:07;102845.41;;;4.53;43.79
73516;BME280;61763;51.416;5.442;2023-02-28T15:20:38;102838.25;;;4.49;41.91
73516;BME280;61763;51.416;5.442;2023-02-28T15:23:04;102844.47;;;4.48;42.16
73516;BME280;61763;51.416;5.442;2023-02-28T15:25:31;102847.16;;;4.47;42.26
73516;BME280;61763;51.416;5.442;2023-02-28T15:27:56;102846.19;;;4.38;42.58